sensor_id;sensor_type;location;lat;lon;timestamp;temperature;humidity
5394;DHT22;2720;52.396;10.064;2023-07-02T00:02:09;15.20;99.90
5394;DHT22;2720;52.396;10.064;2023-07-02T00:04:36;15.20;99.90
5394;DHT22;2720;52.396;10.064;2023-07-02T00:07:05;15.20;99.90
5394;DHT22;2720;52.396;10.064;2023-07-02T00:09:32;15.10;99.90
5394;DHT22;2720;52.396;10.064;2023-07-02T00:11:59;15.10;99.90
5394;DHT22;2720;52.396;10.064;2023-07-02T00:14:26;15.10;99.90
5394;DHT22;2720;52.396;10.064;2023-07-02T00:16:53;15.10;99.90
5394;DHT22;2720;52.396;10.064;2023-07-02T00:19:20;15.10;99.90
5394;DHT22;2720;52.396;10.064;2023-07-02T00:21:47;15.10;99.90
5394;DHT22;2720;52.396;10.064;2023-07-02T00:24:15;15.10;99.90
5394;DHT22;2720;52.396;10.064;2023-07-02T00:26:42;15.10;99.90
5394;DHT22;2720;52.396;10.064;2023-07-02T00:29:09;15.10;99.90
5394;DHT22;2720;52.396;10.064;2023-07-02T00:31:36;15.10;99.90
5394;DHT22;2720;52.396;10.064;2023-07-02T00:34:03;15.10;99.90
5394;DHT22;2720;52.396;10.064;2023-07-02T00:36:31;15.10;99.90
5394;DHT22;2720;52.396;10.064;2023-07-02T00:38:58;15.10;99.90
5394;DHT22;2720;52.396;10.064;2023-07-02T00:41:27;15.10;99.90
5394;DHT22;2720;52.396;10.064;2023-07-02T00:43:54;15.00;99.90
5394;DHT22;2720;52.396;10.064;2023-07-02T00:46:22;15.00;99.90
5394;DHT22;2720;52.396;10.064;2023-07-02T00:48:51;15.00;99.90
5394;DHT22;2720;52.396;10.064;2023-07-02T00:51:20;15.00;99.90
5394;DHT22;2720;52.396;10.064;2023-07-02T00:53:49;15.00;99.90
5394;DHT22;2720;52.396;10.064;2023-07-02T00:56:17;14.90;99.90
5394;DHT22;2720;52.396;10.064;2023-07-02T00:58:47;14.90;99.90
5394;DHT22;2720;52.396;10.064;2023-07-02T01:01:16;14.90;99.90
5394;DHT22;2720;52.396;10.064;2023-07-02T01:03:53;14.80;99.90
5394;DHT22;2720;52.396;10.064;2023-07-02T01:06:23;14.70;99.90
5394;DHT22;2720;52.396;10.064;2023-07-02T01:08:55;14.60;99.90
5394;DHT22;2720;52.396;10.064;2023-07-02T01:11:26;14.60;99.90
5394;DHT22;2720;52.396;10.064;2023-07-02T01:13:57;14.50;99.90
5394;DHT22;2720;52.396;10.064;2023-07-02T01:16:26;14.50;99.90
5394;DHT22;2720;52.396;10.064;2023-07-02T01:18:59;14.40;99.90
5394;DHT22;2720;52.396;10.064;2023-07-02T01:21:30;14.30;99.90
5394;DHT22;2720;52.396;10.064;2023-07-02T01:23:57;14.30;99.90
5394;DHT22;2720;52.396;10.064;2023-07-02T01:26:28;14.20;99.90
5394;DHT22;2720;52.396;10.064;2023-07-02T01:28:56;14.20;99.90
5394;DHT22;2720;52.396;10.064;2023-07-02T01:31:23;14.10;99.90
5394;DHT22;2720;52.396;10.064;2023-07-02T01:33:51;14.10;99.90
5394;DHT22;2720;52.396;10.064;2023-07-02T01:36:17;14.10;99.90
5394;DHT22;2720;52.396;10.064;2023-07-02T01:38:46;14.10;99.90
5394;DHT22;2720;52.396;10.064;2023-07-02T01:41:13;14.00;99.90
5394;DHT22;2720;52.396;10.064;2023-07-02T01:43:40;14.00;99.90
5394;DHT22;2720;52.396;10.064;2023-07-02T01:46:16;14.00;99.90
5394;DHT22;2720;52.396;10.064;2023-07-02T01:48:43;13.90;99.90
5394;DHT22;2720;52.396;10.064;2023-07-02T01:51:10;13.80;99.90
5394;DHT22;2720;52.396;10.064;2023-07-02T01:53:37;13.80;99.90
5394;DHT22;2720;52.396;10.064;2023-07-02T01:56:05;13.70;99.90
5394;DHT22;2720;52.396;10.064;2023-07-02T01:58:32;13.70;99.90
5394;DHT22;2720;52.396;10.064;2023-07-02T02:00:59;13.70;99.90
5394;DHT22;2720;52.396;10.064;2023-07-02T02:03:26;13.60;99.90
5394;DHT22;2720;52.396;10.064;2023-07-02T02:05:53;13.60;99.90
5394;DHT22;2720;52.396;10.064;2023-07-02T02:08:20;13.60;99.90
5394;DHT22;2720;52.396;10.064;2023-07-02T02:10:47;13.60;99.90
5394;DHT22;2720;52.396;10.064;2023-07-02T02:13:15;13.60;99.90
5394;DHT22;2720;52.396;10.064;2023-07-02T02:15:42;13.70;99.90
5394;DHT22;2720;52.396;10.064;2023-07-02T02:18:09;13.70;99.90
5394;DHT22;2720;52.396;10.064;2023-07-02T02:20:36;13.70;99.90
5394;DHT22;2720;52.396;10.064;2023-07-02T02:23:03;13.70;99.90
5394;DHT22;2720;52.396;10.064;2023-07-02T02:25:30;13.70;99.90
5394;DHT22;2720;52.396;10.064;2023-07-02T02:27:57;13.80;99.90
5394;DHT22;2720;52.396;10.064;2023-07-02T02:30:25;13.80;99.90
5394;DHT22;2720;52.396;10.064;2023-07-02T02:32:52;13.90;99.90
5394;DHT22;2720;52.396;10.064;2023-07-02T02:35:19;13.90;99.90
5394;DHT22;2720;52.396;10.064;2023-07-02T02:37:46;14.00;99.90
5394;DHT22;2720;52.396;10.064;2023-07-02T02:40:13;14.00;99.90
5394;DHT22;2720;52.396;10.064;2023-07-02T02:42:40;14.10;99.90
5394;DHT22;2720;52.396;10.064;2023-07-02T02:45:08;14.10;99.90
5394;DHT22;2720;52.396;10.064;2023-07-02T02:47:36;14.10;99.90
5394;DHT22;2720;52.396;10.064;2023-07-02T02:50:05;14.20;99.90
5394;DHT22;2720;52.396;10.064;2023-07-02T02:52:32;14.20;99.90
5394;DHT22;2720;52.396;10.064;2023-07-02T02:54:59;14.20;99.90
5394;DHT22;2720;52.396;10.064;2023-07-02T02:57:26;14.20;99.90
5394;DHT22;2720;52.396;10.064;2023-07-02T02:59:53;14.20;99.90
5394;DHT22;2720;52.396;10.064;2023-07-02T03:02:20;14.20;99.90
5394;DHT22;2720;52.396;10.064;2023-07-02T03:04:48;14.20;99.90
5394;DHT22;2720;52.396;10.064;2023-07-02T03:07:15;14.30;99.90
5394;DHT22;2720;52.396;10.064;2023-07-02T03:09:43;14.30;99.90
5394;DHT22;2720;52.396;10.064;2023-07-02T03:12:10;14.30;99.90
5394;DHT22;2720;52.396;10.064;2023-07-02T03:14:37;14.30;99.90
5394;DHT22;2720;52.396;10.064;2023-07-02T03:17:04;14.30;99.90
5394;DHT22;2720;52.396;10.064;2023-07-02T03:19:31;14.30;99.90
5394;DHT22;2720;52.396;10.064;2023-07-02T03:21:59;14.30;99.90
5394;DHT22;2720;52.396;10.064;2023-07-02T03:24:26;14.40;99.90
5394;DHT22;2720;52.396;10.064;2023-07-02T03:26:53;14.40;99.90
5394;DHT22;2720;52.396;10.064;2023-07-02T03:29:20;14.40;99.90
5394;DHT22;2720;52.396;10.064;2023-07-02T03:31:47;14.40;99.90
5394;DHT22;2720;52.396;10.064;2023-07-02T03:34:14;14.40;99.90
5394;DHT22;2720;52.396;10.064;2023-07-02T03:36:41;14.40;99.90
5394;DHT22;2720;52.396;10.064;2023-07-02T03:39:10;14.40;99.90
5394;DHT22;2720;52.396;10.064;2023-07-02T03:41:37;14.50;99.90
5394;DHT22;2720;52.396;10.064;2023-07-02T03:44:04;14.40;99.90
5394;DHT22;2720;52.396;10.064;2023-07-02T03:46:31;14.50;99.90
5394;DHT22;2720;52.396;10.064;2023-07-02T03:48:58;14.50;99.90
5394;DHT22;2720;52.396;10.064;2023-07-02T03:51:25;14.50;99.90
5394;DHT22;2720;52.396;10.064;2023-07-02T03:53:52;14.60;99.90
5394;DHT22;2720;52.396;10.064;2023-07-02T03:56:20;14.60;99.90
5394;DHT22;2720;52.396;10.064;2023-07-02T03:58:47;14.60;99.90
5394;DHT22;2720;52.396;10.064;2023-07-02T04:01:14;14.70;99.90
5394;DHT22;2720;52.396;10.064;2023-07-02T04:03:47;14.70;99.90
5394;DHT22;2720;52.396;10.064;2023-07-02T04:06:14;14.80;99.90
5394;DHT22;2720;52.396;10.064;2023-07-02T04:08:41;14.90;99.90
5394;DHT22;2720;52.396;10.064;2023-07-02T04:11:09;14.90;99.90
5394;DHT22;2720;52.396;10.064;2023-07-02T04:13:37;14.90;99.90
5394;DHT22;2720;52.396;10.064;2023-07-02T04:16:05;14.90;99.90
5394;DHT22;2720;52.396;10.064;2023-07-02T04:18:32;15.00;99.90
5394;DHT22;2720;52.396;10.064;2023-07-02T04:21:00;15.00;99.90
5394;DHT22;2720;52.396;10.064;2023-07-02T04:23:27;15.00;99.90
5394;DHT22;2720;52.396;10.064;2023-07-02T04:25:54;15.00;99.90
5394;DHT22;2720;52.396;10.064;2023-07-02T04:28:21;15.00;99.90
5394;DHT22;2720;52.396;10.064;2023-07-02T04:30:49;15.00;99.90
5394;DHT22;2720;52.396;10.064;2023-07-02T04:33:17;15.00;99.90
5394;DHT22;2720;52.396;10.064;2023-07-02T04:35:44;15.00;99.90
5394;DHT22;2720;52.396;10.064;2023-07-02T04:38:11;15.00;99.90
5394;DHT22;2720;52.396;10.064;2023-07-02T04:40:39;15.00;99.90
5394;DHT22;2720;52.396;10.064;2023-07-02T04:43:07;15.00;99.90
5394;DHT22;2720;52.396;10.064;2023-07-02T04:45:34;15.00;99.90
5394;DHT22;2720;52.396;10.064;2023-07-02T04:48:04;15.00;99.90
5394;DHT22;2720;52.396;10.064;2023-07-02T04:50:31;15.00;99.90
5394;DHT22;2720;52.396;10.064;2023-07-02T04:52:58;15.00;99.90
5394;DHT22;2720;52.396;10.064;2023-07-02T04:55:25;15.00;99.90
5394;DHT22;2720;52.396;10.064;2023-07-02T04:57:52;15.00;99.90
5394;DHT22;2720;52.396;10.064;2023-07-02T05:00:19;15.10;99.90
5394;DHT22;2720;52.396;10.064;2023-07-02T05:02:47;15.10;99.90
5394;DHT22;2720;52.396;10.064;2023-07-02T05:05:16;15.10;99.90
5394;DHT22;2720;52.396;10.064;2023-07-02T05:07:43;15.10;99.90
5394;DHT22;2720;52.396;10.064;2023-07-02T05:10:10;15.10;99.90
5394;DHT22;2720;52.396;10.064;2023-07-02T05:12:37;15.00;99.90
5394;DHT22;2720;52.396;10.064;2023-07-02T05:15:05;15.00;99.90
5394;DHT22;2720;52.396;10.064;2023-07-02T05:17:32;15.00;99.90
5394;DHT22;2720;52.396;10.064;2023-07-02T05:20:01;15.10;99.90
5394;DHT22;2720;52.396;10.064;2023-07-02T05:22:30;15.00;99.90
5394;DHT22;2720;52.396;10.064;2023-07-02T05:24:57;15.10;99.90
5394;DHT22;2720;52.396;10.064;2023-07-02T05:27:24;15.10;99.90
5394;DHT22;2720;52.396;10.064;2023-07-02T05:29:51;15.00;99.90
5394;DHT22;2720;52.396;10.064;2023-07-02T05:32:17;15.00;99.90
5394;DHT22;2720;52.396;10.064;2023-07-02T05:34:44;15.00;99.90
5394;DHT22;2720;52.396;10.064;2023-07-02T05:37:11;15.10;99.90
5394;DHT22;2720;52.396;10.064;2023-07-02T05:39:40;15.10;99.90
5394;DHT22;2720;52.396;10.064;2023-07-02T05:42:07;15.10;99.90
5394;DHT22;2720;52.396;10.064;2023-07-02T05:44:34;15.10;99.90
5394;DHT22;2720;52.396;10.064;2023-07-02T05:47:01;15.20;99.90
5394;DHT22;2720;52.396;10.064;2023-07-02T05:49:28;15.20;99.90
5394;DHT22;2720;52.396;10.064;2023-07-02T05:51:54;15.30;99.90
5394;DHT22;2720;52.396;10.064;2023-07-02T05:54:21;15.40;99.90
5394;DHT22;2720;52.396;10.064;2023-07-02T05:56:50;15.60;99.90
5394;DHT22;2720;52.396;10.064;2023-07-02T05:59:17;15.60;99.90
5394;DHT22;2720;52.396;10.064;2023-07-02T06:01:44;15.70;99.90
5394;DHT22;2720;52.396;10.064;2023-07-02T06:04:11;15.80;99.90
5394;DHT22;2720;52.396;10.064;2023-07-02T06:06:38;15.90;99.90
5394;DHT22;2720;52.396;10.064;2023-07-02T06:09:05;15.90;99.90
5394;DHT22;2720;52.396;10.064;2023-07-02T06:11:32;15.90;99.90
5394;DHT22;2720;52.396;10.064;2023-07-02T06:14:01;15.90;99.90
5394;DHT22;2720;52.396;10.064;2023-07-02T06:16:27;15.70;99.90
5394;DHT22;2720;52.396;10.064;2023-07-02T06:18:54;15.50;99.90
5394;DHT22;2720;52.396;10.064;2023-07-02T06:21:21;15.40;99.90
5394;DHT22;2720;52.396;10.064;2023-07-02T06:23:49;15.20;99.90
5394;DHT22;2720;52.396;10.064;2023-07-02T06:26:15;15.30;99.90
5394;DHT22;2720;52.396;10.064;2023-07-02T06:28:42;15.20;99.90
5394;DHT22;2720;52.396;10.064;2023-07-02T06:31:11;15.30;99.90
5394;DHT22;2720;52.396;10.064;2023-07-02T06:33:39;15.30;99.90
5394;DHT22;2720;52.396;10.064;2023-07-02T06:36:07;15.40;99.90
5394;DHT22;2720;52.396;10.064;2023-07-02T06:38:34;15.40;99.90
5394;DHT22;2720;52.396;10.064;2023-07-02T06:41:03;15.50;99.90
5394;DHT22;2720;52.396;10.064;2023-07-02T06:43:30;15.60;99.90
5394;DHT22;2720;52.396;10.064;2023-07-02T06:45:57;15.70;99.90
5394;DHT22;2720;52.396;10.064;2023-07-02T06:48:25;15.80;99.90
5394;DHT22;2720;52.396;10.064;2023-07-02T06:50:52;15.80;99.90
5394;DHT22;2720;52.396;10.064;2023-07-02T06:53:19;15.90;99.90
5394;DHT22;2720;52.396;10.064;2023-07-02T06:55:46;16.10;99.90
5394;DHT22;2720;52.396;10.064;2023-07-02T06:58:13;16.20;99.90
5394;DHT22;2720;52.396;10.064;2023-07-02T07:00:40;16.30;99.90
5394;DHT22;2720;52.396;10.064;2023-07-02T07:03:07;16.30;99.90
5394;DHT22;2720;52.396;10.064;2023-07-02T07:05:35;16.40;99.90
5394;DHT22;2720;52.396;10.064;2023-07-02T07:08:02;16.50;99.90
5394;DHT22;2720;52.396;10.064;2023-07-02T07:10:29;16.50;99.90
5394;DHT22;2720;52.396;10.064;2023-07-02T07:13:00;16.50;99.90
5394;DHT22;2720;52.396;10.064;2023-07-02T07:15:27;16.60;99.90
5394;DHT22;2720;52.396;10.064;2023-07-02T07:17:54;16.60;99.90
5394;DHT22;2720;52.396;10.064;2023-07-02T07:20:21;16.70;99.90
5394;DHT22;2720;52.396;10.064;2023-07-02T07:22:49;16.80;99.90
5394;DHT22;2720;52.396;10.064;2023-07-02T07:25:16;16.90;99.90
5394;DHT22;2720;52.396;10.064;2023-07-02T07:27:43;17.10;99.90
5394;DHT22;2720;52.396;10.064;2023-07-02T07:30:11;17.30;99.90
5394;DHT22;2720;52.396;10.064;2023-07-02T07:32:40;17.50;99.90
5394;DHT22;2720;52.396;10.064;2023-07-02T07:35:07;17.70;99.90
5394;DHT22;2720;52.396;10.064;2023-07-02T07:37:34;17.90;99.90
5394;DHT22;2720;52.396;10.064;2023-07-02T07:40:04;17.90;99.90
5394;DHT22;2720;52.396;10.064;2023-07-02T07:42:32;18.00;99.90
5394;DHT22;2720;52.396;10.064;2023-07-02T07:44:58;18.10;99.90
5394;DHT22;2720;52.396;10.064;2023-07-02T07:47:25;18.20;99.90
5394;DHT22;2720;52.396;10.064;2023-07-02T07:49:52;18.20;99.90
5394;DHT22;2720;52.396;10.064;2023-07-02T07:52:20;18.20;99.90
5394;DHT22;2720;52.396;10.064;2023-07-02T07:54:47;18.40;99.90
5394;DHT22;2720;52.396;10.064;2023-07-02T07:57:15;18.50;99.90
5394;DHT22;2720;52.396;10.064;2023-07-02T07:59:42;18.40;99.90
5394;DHT22;2720;52.396;10.064;2023-07-02T08:02:09;18.20;99.90
5394;DHT22;2720;52.396;10.064;2023-07-02T08:04:36;18.20;99.90
5394;DHT22;2720;52.396;10.064;2023-07-02T08:07:03;18.30;99.90
5394;DHT22;2720;52.396;10.064;2023-07-02T08:09:32;18.30;99.90
5394;DHT22;2720;52.396;10.064;2023-07-02T08:11:59;18.30;99.90
5394;DHT22;2720;52.396;10.064;2023-07-02T08:14:27;18.30;99.90
5394;DHT22;2720;52.396;10.064;2023-07-02T08:16:54;18.60;99.90
5394;DHT22;2720;52.396;10.064;2023-07-02T08:19:21;18.40;99.90
5394;DHT22;2720;52.396;10.064;2023-07-02T08:21:48;18.50;99.90
5394;DHT22;2720;52.396;10.064;2023-07-02T08:24:15;18.40;99.90
5394;DHT22;2720;52.396;10.064;2023-07-02T08:26:42;18.50;99.90
5394;DHT22;2720;52.396;10.064;2023-07-02T08:29:10;18.50;99.90
5394;DHT22;2720;52.396;10.064;2023-07-02T08:31:39;18.50;99.90
5394;DHT22;2720;52.396;10.064;2023-07-02T08:34:06;18.50;99.90
5394;DHT22;2720;52.396;10.064;2023-07-02T08:36:33;18.60;99.90
5394;DHT22;2720;52.396;10.064;2023-07-02T08:39:00;18.60;99.90
5394;DHT22;2720;52.396;10.064;2023-07-02T08:41:28;18.50;99.90
5394;DHT22;2720;52.396;10.064;2023-07-02T08:43:59;18.50;99.90
5394;DHT22;2720;52.396;10.064;2023-07-02T08:46:26;18.60;99.90
5394;DHT22;2720;52.396;10.064;2023-07-02T08:48:55;18.80;99.90
5394;DHT22;2720;52.396;10.064;2023-07-02T08:51:22;19.10;99.90
5394;DHT22;2720;52.396;10.064;2023-07-02T08:53:49;19.30;99.90
5394;DHT22;2720;52.396;10.064;2023-07-02T08:56:15;19.40;99.90
5394;DHT22;2720;52.396;10.064;2023-07-02T08:58:42;19.70;99.90
5394;DHT22;2720;52.396;10.064;2023-07-02T09:01:12;19.80;99.90
5394;DHT22;2720;52.396;10.064;2023-07-02T09:03:39;19.80;99.90
5394;DHT22;2720;52.396;10.064;2023-07-02T09:06:09;19.80;99.90
5394;DHT22;2720;52.396;10.064;2023-07-02T09:08:36;19.70;99.90
5394;DHT22;2720;52.396;10.064;2023-07-02T09:11:07;19.60;99.90
5394;DHT22;2720;52.396;10.064;2023-07-02T09:13:47;19.60;99.90
5394;DHT22;2720;52.396;10.064;2023-07-02T09:16:24;19.70;99.90
5394;DHT22;2720;52.396;10.064;2023-07-02T09:19:02;19.80;99.90
5394;DHT22;2720;52.396;10.064;2023-07-02T09:21:41;19.80;99.90
5394;DHT22;2720;52.396;10.064;2023-07-02T09:24:15;19.90;99.90
5394;DHT22;2720;52.396;10.064;2023-07-02T09:26:43;20.00;99.90
5394;DHT22;2720;52.396;10.064;2023-07-02T09:29:10;20.00;99.90
5394;DHT22;2720;52.396;10.064;2023-07-02T09:31:44;20.10;99.90
5394;DHT22;2720;52.396;10.064;2023-07-02T09:34:11;20.30;99.90
5394;DHT22;2720;52.396;10.064;2023-07-02T09:36:40;20.40;99.90
5394;DHT22;2720;52.396;10.064;2023-07-02T09:39:08;20.50;99.90
5394;DHT22;2720;52.396;10.064;2023-07-02T09:41:35;20.60;99.90
5394;DHT22;2720;52.396;10.064;2023-07-02T09:44:03;20.60;99.90
5394;DHT22;2720;52.396;10.064;2023-07-02T09:46:31;20.60;99.90
5394;DHT22;2720;52.396;10.064;2023-07-02T09:48:59;20.50;99.90
5394;DHT22;2720;52.396;10.064;2023-07-02T09:51:26;20.10;99.90
5394;DHT22;2720;52.396;10.064;2023-07-02T09:53:55;19.90;99.90
5394;DHT22;2720;52.396;10.064;2023-07-02T09:56:22;19.80;99.90
5394;DHT22;2720;52.396;10.064;2023-07-02T09:58:49;19.70;99.90
5394;DHT22;2720;52.396;10.064;2023-07-02T10:01:16;19.60;99.90
5394;DHT22;2720;52.396;10.064;2023-07-02T10:03:44;19.60;99.90
5394;DHT22;2720;52.396;10.064;2023-07-02T10:06:10;19.80;99.90
5394;DHT22;2720;52.396;10.064;2023-07-02T10:08:37;20.00;99.90
5394;DHT22;2720;52.396;10.064;2023-07-02T10:11:12;20.30;99.90
5394;DHT22;2720;52.396;10.064;2023-07-02T10:13:39;20.40;99.90
5394;DHT22;2720;52.396;10.064;2023-07-02T10:16:07;20.30;99.90
5394;DHT22;2720;52.396;10.064;2023-07-02T10:18:34;20.40;99.90
5394;DHT22;2720;52.396;10.064;2023-07-02T10:21:13;20.70;99.90
5394;DHT22;2720;52.396;10.064;2023-07-02T10:23:40;21.10;99.90
5394;DHT22;2720;52.396;10.064;2023-07-02T10:26:14;21.40;99.90
5394;DHT22;2720;52.396;10.064;2023-07-02T10:28:42;21.60;99.90
5394;DHT22;2720;52.396;10.064;2023-07-02T10:31:26;21.60;99.90
5394;DHT22;2720;52.396;10.064;2023-07-02T10:33:53;21.40;99.90
5394;DHT22;2720;52.396;10.064;2023-07-02T10:36:21;21.10;99.90
5394;DHT22;2720;52.396;10.064;2023-07-02T10:38:49;20.60;99.90
5394;DHT22;2720;52.396;10.064;2023-07-02T10:41:28;20.30;99.90
5394;DHT22;2720;52.396;10.064;2023-07-02T10:44:05;20.30;99.90
5394;DHT22;2720;52.396;10.064;2023-07-02T10:46:32;20.40;99.90
5394;DHT22;2720;52.396;10.064;2023-07-02T10:48:59;20.70;99.90
5394;DHT22;2720;52.396;10.064;2023-07-02T10:51:26;21.10;99.90
5394;DHT22;2720;52.396;10.064;2023-07-02T10:53:57;21.80;99.90
5394;DHT22;2720;52.396;10.064;2023-07-02T10:56:26;22.30;99.90
5394;DHT22;2720;52.396;10.064;2023-07-02T10:58:54;22.50;99.90
5394;DHT22;2720;52.396;10.064;2023-07-02T11:01:25;22.60;99.90
5394;DHT22;2720;52.396;10.064;2023-07-02T11:03:59;22.60;99.90
5394;DHT22;2720;52.396;10.064;2023-07-02T11:06:27;22.40;99.90
5394;DHT22;2720;52.396;10.064;2023-07-02T11:08:55;22.30;99.90
5394;DHT22;2720;52.396;10.064;2023-07-02T11:13:52;22.40;99.90
5394;DHT22;2720;52.396;10.064;2023-07-02T11:16:21;22.60;99.90
5394;DHT22;2720;52.396;10.064;2023-07-02T11:18:51;22.70;99.90
5394;DHT22;2720;52.396;10.064;2023-07-02T11:21:18;22.60;99.90
5394;DHT22;2720;52.396;10.064;2023-07-02T11:23:45;22.50;99.90
5394;DHT22;2720;52.396;10.064;2023-07-02T11:26:12;22.80;99.90
5394;DHT22;2720;52.396;10.064;2023-07-02T11:28:48;23.50;99.90
5394;DHT22;2720;52.396;10.064;2023-07-02T11:31:25;23.80;99.90
5394;DHT22;2720;52.396;10.064;2023-07-02T11:33:53;24.10;99.90
5394;DHT22;2720;52.396;10.064;2023-07-02T11:36:21;24.40;99.90
5394;DHT22;2720;52.396;10.064;2023-07-02T11:38:49;24.70;99.90
5394;DHT22;2720;52.396;10.064;2023-07-02T11:41:17;24.40;99.00
5394;DHT22;2720;52.396;10.064;2023-07-02T11:43:44;23.90;99.90
5394;DHT22;2720;52.396;10.064;2023-07-02T11:46:11;23.90;99.90
5394;DHT22;2720;52.396;10.064;2023-07-02T11:48:39;24.10;99.60
5394;DHT22;2720;52.396;10.064;2023-07-02T11:51:06;23.80;99.90
5394;DHT22;2720;52.396;10.064;2023-07-02T11:53:33;22.90;99.90
5394;DHT22;2720;52.396;10.064;2023-07-02T11:56:00;22.90;99.90
5394;DHT22;2720;52.396;10.064;2023-07-02T11:58:27;22.20;99.90
5394;DHT22;2720;52.396;10.064;2023-07-02T12:00:54;22.00;99.90
5394;DHT22;2720;52.396;10.064;2023-07-02T12:03:21;21.70;99.90
5394;DHT22;2720;52.396;10.064;2023-07-02T12:05:49;21.30;99.90
5394;DHT22;2720;52.396;10.064;2023-07-02T12:08:16;21.50;99.90
5394;DHT22;2720;52.396;10.064;2023-07-02T12:10:43;22.50;99.90
5394;DHT22;2720;52.396;10.064;2023-07-02T12:13:11;23.50;99.90
5394;DHT22;2720;52.396;10.064;2023-07-02T12:15:38;24.10;99.90
5394;DHT22;2720;52.396;10.064;2023-07-02T12:18:04;24.30;99.90
5394;DHT22;2720;52.396;10.064;2023-07-02T12:20:31;24.00;99.90
5394;DHT22;2720;52.396;10.064;2023-07-02T12:23:00;23.60;99.90
5394;DHT22;2720;52.396;10.064;2023-07-02T12:25:27;23.60;99.90
5394;DHT22;2720;52.396;10.064;2023-07-02T12:27:54;23.70;99.50
5394;DHT22;2720;52.396;10.064;2023-07-02T12:30:21;23.60;99.90
5394;DHT22;2720;52.396;10.064;2023-07-02T12:32:48;24.00;99.90
5394;DHT22;2720;52.396;10.064;2023-07-02T12:35:15;24.30;99.90
5394;DHT22;2720;52.396;10.064;2023-07-02T12:37:46;24.40;99.90
5394;DHT22;2720;52.396;10.064;2023-07-02T12:40:15;24.10;98.70
5394;DHT22;2720;52.396;10.064;2023-07-02T12:42:42;23.40;99.90
5394;DHT22;2720;52.396;10.064;2023-07-02T12:45:10;23.10;99.90
5394;DHT22;2720;52.396;10.064;2023-07-02T12:47:38;23.50;99.90
5394;DHT22;2720;52.396;10.064;2023-07-02T12:50:06;24.00;99.90
5394;DHT22;2720;52.396;10.064;2023-07-02T12:52:33;24.60;99.90
5394;DHT22;2720;52.396;10.064;2023-07-02T12:55:00;25.20;99.20
5394;DHT22;2720;52.396;10.064;2023-07-02T12:57:29;25.80;96.80
5394;DHT22;2720;52.396;10.064;2023-07-02T12:59:56;26.00;98.40
5394;DHT22;2720;52.396;10.064;2023-07-02T13:02:23;26.60;96.90
5394;DHT22;2720;52.396;10.064;2023-07-02T13:04:51;26.70;96.70
5394;DHT22;2720;52.396;10.064;2023-07-02T13:07:18;27.00;95.90
5394;DHT22;2720;52.396;10.064;2023-07-02T13:09:45;27.10;94.10
5394;DHT22;2720;52.396;10.064;2023-07-02T13:12:12;26.50;95.30
5394;DHT22;2720;52.396;10.064;2023-07-02T13:14:40;25.50;95.70
5394;DHT22;2720;52.396;10.064;2023-07-02T13:17:07;25.20;97.20
5394;DHT22;2720;52.396;10.064;2023-07-02T13:19:34;25.00;96.70
5394;DHT22;2720;52.396;10.064;2023-07-02T13:22:01;24.30;95.70
5394;DHT22;2720;52.396;10.064;2023-07-02T13:24:33;23.70;97.60
5394;DHT22;2720;52.396;10.064;2023-07-02T13:27:04;23.60;98.50
5394;DHT22;2720;52.396;10.064;2023-07-02T13:29:32;23.80;96.80
5394;DHT22;2720;52.396;10.064;2023-07-02T13:32:00;23.80;96.90
5394;DHT22;2720;52.396;10.064;2023-07-02T13:34:27;23.10;97.00
5394;DHT22;2720;52.396;10.064;2023-07-02T13:36:54;23.20;97.10
5394;DHT22;2720;52.396;10.064;2023-07-02T13:39:21;23.00;99.90
5394;DHT22;2720;52.396;10.064;2023-07-02T13:41:50;22.70;99.50
5394;DHT22;2720;52.396;10.064;2023-07-02T13:44:17;22.40;99.00
5394;DHT22;2720;52.396;10.064;2023-07-02T13:46:45;22.20;98.20
5394;DHT22;2720;52.396;10.064;2023-07-02T13:49:13;22.40;96.80
5394;DHT22;2720;52.396;10.064;2023-07-02T13:51:40;22.50;97.00
5394;DHT22;2720;52.396;10.064;2023-07-02T13:54:09;22.20;97.70
5394;DHT22;2720;52.396;10.064;2023-07-02T13:56:36;22.30;98.40
5394;DHT22;2720;52.396;10.064;2023-07-02T14:01:32;22.60;97.30
5394;DHT22;2720;52.396;10.064;2023-07-02T14:03:59;22.60;97.10
5394;DHT22;2720;52.396;10.064;2023-07-02T14:06:27;22.70;98.20
5394;DHT22;2720;52.396;10.064;2023-07-02T14:08:54;22.60;97.50
5394;DHT22;2720;52.396;10.064;2023-07-02T14:11:24;22.50;98.20
5394;DHT22;2720;52.396;10.064;2023-07-02T14:13:53;22.70;99.90
5394;DHT22;2720;52.396;10.064;2023-07-02T14:16:21;23.10;98.20
5394;DHT22;2720;52.396;10.064;2023-07-02T14:18:49;23.40;97.70
5394;DHT22;2720;52.396;10.064;2023-07-02T14:21:16;23.80;99.20
5394;DHT22;2720;52.396;10.064;2023-07-02T14:23:43;24.80;96.50
5394;DHT22;2720;52.396;10.064;2023-07-02T14:26:11;25.40;96.10
5394;DHT22;2720;52.396;10.064;2023-07-02T14:28:38;25.70;95.50
5394;DHT22;2720;52.396;10.064;2023-07-02T14:31:05;25.70;95.00
5394;DHT22;2720;52.396;10.064;2023-07-02T14:33:36;25.60;94.90
5394;DHT22;2720;52.396;10.064;2023-07-02T14:36:04;25.00;95.50
5394;DHT22;2720;52.396;10.064;2023-07-02T14:38:32;24.10;97.00
5394;DHT22;2720;52.396;10.064;2023-07-02T14:41:00;23.50;97.60
5394;DHT22;2720;52.396;10.064;2023-07-02T14:43:29;23.20;97.00
5394;DHT22;2720;52.396;10.064;2023-07-02T14:45:59;22.90;97.60
5394;DHT22;2720;52.396;10.064;2023-07-02T14:48:27;23.20;97.60
5394;DHT22;2720;52.396;10.064;2023-07-02T14:50:57;23.60;98.00
5394;DHT22;2720;52.396;10.064;2023-07-02T14:53:25;23.30;96.60
5394;DHT22;2720;52.396;10.064;2023-07-02T14:55:54;22.90;97.40
5394;DHT22;2720;52.396;10.064;2023-07-02T14:58:22;22.50;99.30
5394;DHT22;2720;52.396;10.064;2023-07-02T15:00:51;22.30;98.30
5394;DHT22;2720;52.396;10.064;2023-07-02T15:03:20;22.40;98.00
5394;DHT22;2720;52.396;10.064;2023-07-02T15:05:49;22.20;98.70
5394;DHT22;2720;52.396;10.064;2023-07-02T15:08:18;21.90;98.30
5394;DHT22;2720;52.396;10.064;2023-07-02T15:10:47;21.80;98.90
5394;DHT22;2720;52.396;10.064;2023-07-02T15:13:15;21.90;99.50
5394;DHT22;2720;52.396;10.064;2023-07-02T15:15:43;22.00;97.90
5394;DHT22;2720;52.396;10.064;2023-07-02T15:18:11;22.20;97.40
5394;DHT22;2720;52.396;10.064;2023-07-02T15:20:38;22.50;98.30
5394;DHT22;2720;52.396;10.064;2023-07-02T15:23:05;23.30;97.10
5394;DHT22;2720;52.396;10.064;2023-07-02T15:25:33;24.20;97.20
5394;DHT22;2720;52.396;10.064;2023-07-02T15:28:00;25.00;98.80
5394;DHT22;2720;52.396;10.064;2023-07-02T15:30:27;25.80;97.70
5394;DHT22;2720;52.396;10.064;2023-07-02T15:32:55;26.10;95.10
5394;DHT22;2720;52.396;10.064;2023-07-02T15:35:22;26.10;93.60
5394;DHT22;2720;52.396;10.064;2023-07-02T15:37:49;25.30;94.30
5394;DHT22;2720;52.396;10.064;2023-07-02T15:40:17;24.90;96.10
5394;DHT22;2720;52.396;10.064;2023-07-02T15:42:45;24.90;95.10
5394;DHT22;2720;52.396;10.064;2023-07-02T15:45:12;24.90;94.50
5394;DHT22;2720;52.396;10.064;2023-07-02T15:47:39;24.70;94.70
5394;DHT22;2720;52.396;10.064;2023-07-02T15:50:08;24.60;93.90
5394;DHT22;2720;52.396;10.064;2023-07-02T15:52:35;24.50;94.90
5394;DHT22;2720;52.396;10.064;2023-07-02T15:55:02;24.10;95.00